sensor_id;sensor_type;location;lat;lon;timestamp;P1;durP1;ratioP1;P2;durP2;ratioP2
15655;SDS011;7928;43.614;1.456;2023-09-19T00:02:22;9.73;;;2.33;;
15655;SDS011;7928;43.614;1.456;2023-09-19T00:04:48;10.57;;;2.17;;
15655;SDS011;7928;43.614;1.456;2023-09-19T00:07:17;8.53;;;2.33;;
15655;SDS011;7928;43.614;1.456;2023-09-19T00:09:44;11.60;;;2.17;;
15655;SDS011;7928;43.614;1.456;2023-09-19T00:12:11;12.33;;;3.10;;
15655;SDS011;7928;43.614;1.456;2023-09-19T00:14:38;8.10;;;2.10;;
15655;SDS011;7928;43.614;1.456;2023-09-19T00:17:07;8.17;;;2.13;;
15655;SDS011;7928;43.614;1.456;2023-09-19T00:19:34;9.87;;;2.10;;
15655;SDS011;7928;43.614;1.456;2023-09-19T00:22:02;6.73;;;2.00;;
15655;SDS011;7928;43.614;1.456;2023-09-19T00:24:29;5.40;;;1.83;;
15655;SDS011;7928;43.614;1.456;2023-09-19T00:26:57;8.67;;;2.00;;
15655;SDS011;7928;43.614;1.456;2023-09-19T00:29:25;10.03;;;2.70;;
15655;SDS011;7928;43.614;1.456;2023-09-19T00:31:54;8.27;;;2.27;;
15655;SDS011;7928;43.614;1.456;2023-09-19T00:34:23;6.97;;;2.03;;
15655;SDS011;7928;43.614;1.456;2023-09-19T00:36:50;9.63;;;2.20;;
15655;SDS011;7928;43.614;1.456;2023-09-19T00:39:19;10.43;;;1.87;;
15655;SDS011;7928;43.614;1.456;2023-09-19T00:41:47;6.07;;;1.77;;
15655;SDS011;7928;43.614;1.456;2023-09-19T00:44:14;4.50;;;1.50;;
15655;SDS011;7928;43.614;1.456;2023-09-19T00:46:42;7.70;;;2.70;;
15655;SDS011;7928;43.614;1.456;2023-09-19T00:49:12;9.17;;;1.90;;
15655;SDS011;7928;43.614;1.456;2023-09-19T00:51:41;9.57;;;2.33;;
15655;SDS011;7928;43.614;1.456;2023-09-19T00:54:12;6.17;;;1.40;;
15655;SDS011;7928;43.614;1.456;2023-09-19T00:56:43;7.17;;;1.40;;
15655;SDS011;7928;43.614;1.456;2023-09-19T00:59:11;7.23;;;2.47;;
15655;SDS011;7928;43.614;1.456;2023-09-19T01:01:38;6.40;;;1.73;;
15655;SDS011;7928;43.614;1.456;2023-09-19T01:04:06;8.03;;;2.20;;
15655;SDS011;7928;43.614;1.456;2023-09-19T01:06:33;6.17;;;1.67;;
15655;SDS011;7928;43.614;1.456;2023-09-19T01:09:03;7.63;;;1.93;;
15655;SDS011;7928;43.614;1.456;2023-09-19T01:11:32;6.97;;;1.80;;
15655;SDS011;7928;43.614;1.456;2023-09-19T01:14:06;6.80;;;2.17;;
15655;SDS011;7928;43.614;1.456;2023-09-19T01:16:45;6.67;;;2.13;;
15655;SDS011;7928;43.614;1.456;2023-09-19T01:19:38;4.53;;;1.67;;
15655;SDS011;7928;43.614;1.456;2023-09-19T01:22:42;6.73;;;1.90;;
15655;SDS011;7928;43.614;1.456;2023-09-19T01:25:28;6.87;;;1.77;;
15655;SDS011;7928;43.614;1.456;2023-09-19T01:28:20;10.63;;;2.03;;
15655;SDS011;7928;43.614;1.456;2023-09-19T01:30:57;7.97;;;1.70;;
15655;SDS011;7928;43.614;1.456;2023-09-19T01:33:28;4.00;;;1.40;;
15655;SDS011;7928;43.614;1.456;2023-09-19T01:36:17;6.27;;;2.00;;
15655;SDS011;7928;43.614;1.456;2023-09-19T01:38:44;8.93;;;1.80;;
15655;SDS011;7928;43.614;1.456;2023-09-19T01:41:12;6.97;;;2.00;;
15655;SDS011;7928;43.614;1.456;2023-09-19T01:43:47;7.50;;;1.80;;
15655;SDS011;7928;43.614;1.456;2023-09-19T01:46:18;7.60;;;2.00;;
15655;SDS011;7928;43.614;1.456;2023-09-19T01:48:49;7.17;;;2.23;;
15655;SDS011;7928;43.614;1.456;2023-09-19T01:51:26;6.20;;;1.83;;
15655;SDS011;7928;43.614;1.456;2023-09-19T01:54:03;5.57;;;1.80;;
15655;SDS011;7928;43.614;1.456;2023-09-19T01:56:37;9.80;;;2.07;;
15655;SDS011;7928;43.614;1.456;2023-09-19T01:59:11;5.47;;;1.90;;
15655;SDS011;7928;43.614;1.456;2023-09-19T02:01:42;7.53;;;2.47;;
15655;SDS011;7928;43.614;1.456;2023-09-19T02:04:12;5.50;;;1.93;;
15655;SDS011;7928;43.614;1.456;2023-09-19T02:06:40;4.97;;;1.67;;
15655;SDS011;7928;43.614;1.456;2023-09-19T02:09:08;8.27;;;1.83;;
15655;SDS011;7928;43.614;1.456;2023-09-19T02:11:35;7.63;;;2.30;;
15655;SDS011;7928;43.614;1.456;2023-09-19T02:14:02;6.50;;;1.67;;
15655;SDS011;7928;43.614;1.456;2023-09-19T02:16:33;9.53;;;2.17;;
15655;SDS011;7928;43.614;1.456;2023-09-19T02:19:00;8.10;;;1.97;;
15655;SDS011;7928;43.614;1.456;2023-09-19T02:21:30;8.77;;;1.70;;
15655;SDS011;7928;43.614;1.456;2023-09-19T02:23:59;7.97;;;1.80;;
15655;SDS011;7928;43.614;1.456;2023-09-19T02:26:26;9.53;;;1.43;;
15655;SDS011;7928;43.614;1.456;2023-09-19T02:28:53;7.37;;;1.77;;
15655;SDS011;7928;43.614;1.456;2023-09-19T02:31:20;6.07;;;1.93;;
15655;SDS011;7928;43.614;1.456;2023-09-19T02:33:47;6.57;;;1.60;;
15655;SDS011;7928;43.614;1.456;2023-09-19T02:36:14;8.33;;;2.00;;
15655;SDS011;7928;43.614;1.456;2023-09-19T02:38:42;6.63;;;1.70;;
15655;SDS011;7928;43.614;1.456;2023-09-19T02:41:11;6.33;;;1.80;;
15655;SDS011;7928;43.614;1.456;2023-09-19T02:43:38;6.77;;;1.67;;
15655;SDS011;7928;43.614;1.456;2023-09-19T02:46:05;7.90;;;2.37;;
15655;SDS011;7928;43.614;1.456;2023-09-19T02:48:32;8.67;;;2.27;;
15655;SDS011;7928;43.614;1.456;2023-09-19T02:51:01;6.97;;;1.90;;
15655;SDS011;7928;43.614;1.456;2023-09-19T02:53:28;8.37;;;1.67;;
15655;SDS011;7928;43.614;1.456;2023-09-19T02:55:57;7.43;;;2.13;;
15655;SDS011;7928;43.614;1.456;2023-09-19T02:58:25;3.63;;;1.43;;
15655;SDS011;7928;43.614;1.456;2023-09-19T03:00:55;12.17;;;2.30;;
15655;SDS011;7928;43.614;1.456;2023-09-19T03:03:23;8.13;;;1.80;;
15655;SDS011;7928;43.614;1.456;2023-09-19T03:05:50;5.73;;;1.97;;
15655;SDS011;7928;43.614;1.456;2023-09-19T03:08:18;7.97;;;1.90;;
15655;SDS011;7928;43.614;1.456;2023-09-19T03:10:45;5.57;;;1.90;;
15655;SDS011;7928;43.614;1.456;2023-09-19T03:13:13;7.90;;;2.67;;
15655;SDS011;7928;43.614;1.456;2023-09-19T03:15:42;5.10;;;2.07;;
15655;SDS011;7928;43.614;1.456;2023-09-19T03:18:11;5.50;;;1.53;;
15655;SDS011;7928;43.614;1.456;2023-09-19T03:20:38;10.23;;;2.20;;
15655;SDS011;7928;43.614;1.456;2023-09-19T03:23:05;4.80;;;1.77;;
15655;SDS011;7928;43.614;1.456;2023-09-19T03:25:34;9.10;;;2.30;;
15655;SDS011;7928;43.614;1.456;2023-09-19T03:28:01;7.70;;;2.13;;
15655;SDS011;7928;43.614;1.456;2023-09-19T03:30:31;5.80;;;2.20;;
15655;SDS011;7928;43.614;1.456;2023-09-19T03:33:00;7.47;;;2.07;;
15655;SDS011;7928;43.614;1.456;2023-09-19T03:35:27;7.17;;;2.07;;
15655;SDS011;7928;43.614;1.456;2023-09-19T03:37:54;8.27;;;2.33;;
15655;SDS011;7928;43.614;1.456;2023-09-19T03:40:22;5.73;;;1.80;;
15655;SDS011;7928;43.614;1.456;2023-09-19T03:42:50;6.90;;;2.00;;
15655;SDS011;7928;43.614;1.456;2023-09-19T03:45:17;7.70;;;1.93;;
15655;SDS011;7928;43.614;1.456;2023-09-19T03:47:44;5.40;;;1.90;;
15655;SDS011;7928;43.614;1.456;2023-09-19T03:50:14;7.90;;;1.60;;
15655;SDS011;7928;43.614;1.456;2023-09-19T03:52:42;9.30;;;1.83;;
15655;SDS011;7928;43.614;1.456;2023-09-19T03:55:09;5.43;;;1.90;;
15655;SDS011;7928;43.614;1.456;2023-09-19T03:57:36;6.10;;;1.60;;
15655;SDS011;7928;43.614;1.456;2023-09-19T04:00:04;6.10;;;2.10;;
15655;SDS011;7928;43.614;1.456;2023-09-19T04:02:36;6.43;;;1.60;;
15655;SDS011;7928;43.614;1.456;2023-09-19T04:05:03;8.77;;;2.00;;
15655;SDS011;7928;43.614;1.456;2023-09-19T04:07:32;7.93;;;1.90;;
15655;SDS011;7928;43.614;1.456;2023-09-19T04:09:59;5.23;;;1.60;;
15655;SDS011;7928;43.614;1.456;2023-09-19T04:12:26;10.33;;;1.87;;
15655;SDS011;7928;43.614;1.456;2023-09-19T04:14:53;6.83;;;2.27;;
15655;SDS011;7928;43.614;1.456;2023-09-19T04:17:20;7.30;;;2.00;;
15655;SDS011;7928;43.614;1.456;2023-09-19T04:19:48;4.63;;;1.47;;
15655;SDS011;7928;43.614;1.456;2023-09-19T04:22:15;6.53;;;1.97;;
15655;SDS011;7928;43.614;1.456;2023-09-19T04:24:43;5.07;;;1.90;;
15655;SDS011;7928;43.614;1.456;2023-09-19T04:27:10;8.93;;;2.40;;
15655;SDS011;7928;43.614;1.456;2023-09-19T04:29:39;5.90;;;1.90;;
15655;SDS011;7928;43.614;1.456;2023-09-19T04:32:06;6.73;;;2.20;;
15655;SDS011;7928;43.614;1.456;2023-09-19T04:34:34;8.37;;;1.90;;
15655;SDS011;7928;43.614;1.456;2023-09-19T04:37:02;8.40;;;2.00;;
15655;SDS011;7928;43.614;1.456;2023-09-19T04:39:29;8.10;;;2.10;;
15655;SDS011;7928;43.614;1.456;2023-09-19T04:41:58;7.50;;;1.93;;
15655;SDS011;7928;43.614;1.456;2023-09-19T04:44:25;7.77;;;2.37;;
15655;SDS011;7928;43.614;1.456;2023-09-19T04:46:52;7.30;;;2.20;;
15655;SDS011;7928;43.614;1.456;2023-09-19T04:49:18;7.37;;;2.20;;
15655;SDS011;7928;43.614;1.456;2023-09-19T04:51:45;3.27;;;1.90;;
15655;SDS011;7928;43.614;1.456;2023-09-19T04:54:12;5.07;;;2.37;;
15655;SDS011;7928;43.614;1.456;2023-09-19T04:56:41;11.10;;;2.20;;
15655;SDS011;7928;43.614;1.456;2023-09-19T04:59:09;7.47;;;1.97;;
15655;SDS011;7928;43.614;1.456;2023-09-19T05:01:36;7.03;;;2.10;;
15655;SDS011;7928;43.614;1.456;2023-09-19T05:04:04;5.27;;;1.77;;
15655;SDS011;7928;43.614;1.456;2023-09-19T05:06:31;8.57;;;2.67;;
15655;SDS011;7928;43.614;1.456;2023-09-19T05:08:58;7.73;;;2.37;;
15655;SDS011;7928;43.614;1.456;2023-09-19T05:11:26;7.87;;;1.90;;
15655;SDS011;7928;43.614;1.456;2023-09-19T05:13:55;7.33;;;2.13;;
15655;SDS011;7928;43.614;1.456;2023-09-19T05:16:23;6.13;;;1.50;;
15655;SDS011;7928;43.614;1.456;2023-09-19T05:18:50;6.63;;;2.03;;
15655;SDS011;7928;43.614;1.456;2023-09-19T05:21:17;8.83;;;2.17;;
15655;SDS011;7928;43.614;1.456;2023-09-19T05:23:45;6.63;;;2.10;;
15655;SDS011;7928;43.614;1.456;2023-09-19T05:26:12;7.87;;;2.20;;
15655;SDS011;7928;43.614;1.456;2023-09-19T05:28:41;7.53;;;2.03;;
15655;SDS011;7928;43.614;1.456;2023-09-19T05:31:08;10.33;;;2.33;;
15655;SDS011;7928;43.614;1.456;2023-09-19T05:33:36;7.73;;;2.20;;
15655;SDS011;7928;43.614;1.456;2023-09-19T05:36:04;5.40;;;2.10;;
15655;SDS011;7928;43.614;1.456;2023-09-19T05:38:32;10.20;;;2.67;;
15655;SDS011;7928;43.614;1.456;2023-09-19T05:41:00;6.60;;;2.20;;
15655;SDS011;7928;43.614;1.456;2023-09-19T05:43:27;6.13;;;2.20;;
15655;SDS011;7928;43.614;1.456;2023-09-19T05:45:54;10.63;;;2.67;;
15655;SDS011;7928;43.614;1.456;2023-09-19T05:48:21;10.47;;;2.23;;
15655;SDS011;7928;43.614;1.456;2023-09-19T05:50:49;5.80;;;2.00;;
15655;SDS011;7928;43.614;1.456;2023-09-19T05:53:16;7.13;;;2.13;;
15655;SDS011;7928;43.614;1.456;2023-09-19T05:55:43;6.27;;;2.10;;
15655;SDS011;7928;43.614;1.456;2023-09-19T05:58:11;12.33;;;3.00;;
15655;SDS011;7928;43.614;1.456;2023-09-19T06:00:39;7.37;;;2.43;;
15655;SDS011;7928;43.614;1.456;2023-09-19T06:03:08;10.50;;;2.60;;
15655;SDS011;7928;43.614;1.456;2023-09-19T06:05:35;9.73;;;2.77;;
15655;SDS011;7928;43.614;1.456;2023-09-19T06:08:06;5.73;;;2.17;;
15655;SDS011;7928;43.614;1.456;2023-09-19T06:10:34;9.80;;;2.40;;
15655;SDS011;7928;43.614;1.456;2023-09-19T06:13:01;6.63;;;1.87;;
15655;SDS011;7928;43.614;1.456;2023-09-19T06:15:30;6.23;;;2.40;;
15655;SDS011;7928;43.614;1.456;2023-09-19T06:18:01;8.33;;;2.80;;
15655;SDS011;7928;43.614;1.456;2023-09-19T06:20:30;9.30;;;2.87;;
15655;SDS011;7928;43.614;1.456;2023-09-19T06:22:58;6.70;;;2.30;;
15655;SDS011;7928;43.614;1.456;2023-09-19T06:25:28;10.57;;;2.27;;
15655;SDS011;7928;43.614;1.456;2023-09-19T06:27:55;6.43;;;2.07;;
15655;SDS011;7928;43.614;1.456;2023-09-19T06:30:23;7.90;;;2.30;;
15655;SDS011;7928;43.614;1.456;2023-09-19T06:32:55;6.77;;;2.60;;
15655;SDS011;7928;43.614;1.456;2023-09-19T06:35:22;7.40;;;2.47;;
15655;SDS011;7928;43.614;1.456;2023-09-19T06:37:51;10.67;;;3.03;;
15655;SDS011;7928;43.614;1.456;2023-09-19T06:40:18;7.20;;;2.90;;
15655;SDS011;7928;43.614;1.456;2023-09-19T06:42:49;8.40;;;2.37;;
15655;SDS011;7928;43.614;1.456;2023-09-19T06:45:18;9.43;;;3.23;;
15655;SDS011;7928;43.614;1.456;2023-09-19T06:47:46;9.80;;;2.73;;
15655;SDS011;7928;43.614;1.456;2023-09-19T06:50:15;9.97;;;3.20;;
15655;SDS011;7928;43.614;1.456;2023-09-19T06:52:44;10.17;;;2.03;;
15655;SDS011;7928;43.614;1.456;2023-09-19T06:55:13;7.30;;;2.50;;
15655;SDS011;7928;43.614;1.456;2023-09-19T06:57:41;7.10;;;2.73;;
15655;SDS011;7928;43.614;1.456;2023-09-19T07:00:10;10.60;;;2.70;;
15655;SDS011;7928;43.614;1.456;2023-09-19T07:02:43;12.93;;;2.77;;
15655;SDS011;7928;43.614;1.456;2023-09-19T07:05:10;7.10;;;2.20;;
15655;SDS011;7928;43.614;1.456;2023-09-19T07:07:37;11.07;;;3.10;;
15655;SDS011;7928;43.614;1.456;2023-09-19T07:10:05;10.17;;;2.40;;
15655;SDS011;7928;43.614;1.456;2023-09-19T07:12:33;8.90;;;2.47;;
15655;SDS011;7928;43.614;1.456;2023-09-19T07:15:00;12.43;;;2.50;;
15655;SDS011;7928;43.614;1.456;2023-09-19T07:17:28;5.47;;;2.07;;
15655;SDS011;7928;43.614;1.456;2023-09-19T07:19:55;9.80;;;2.40;;
15655;SDS011;7928;43.614;1.456;2023-09-19T07:22:23;9.43;;;2.60;;
15655;SDS011;7928;43.614;1.456;2023-09-19T07:24:49;12.63;;;2.47;;
15655;SDS011;7928;43.614;1.456;2023-09-19T07:27:17;6.57;;;2.57;;
15655;SDS011;7928;43.614;1.456;2023-09-19T07:29:44;8.40;;;2.33;;
15655;SDS011;7928;43.614;1.456;2023-09-19T07:32:11;7.07;;;1.90;;
15655;SDS011;7928;43.614;1.456;2023-09-19T07:34:40;8.57;;;1.77;;
15655;SDS011;7928;43.614;1.456;2023-09-19T07:37:09;7.47;;;2.20;;
15655;SDS011;7928;43.614;1.456;2023-09-19T07:39:38;7.40;;;2.40;;
15655;SDS011;7928;43.614;1.456;2023-09-19T07:42:06;8.87;;;2.57;;
15655;SDS011;7928;43.614;1.456;2023-09-19T07:44:34;8.03;;;2.50;;
15655;SDS011;7928;43.614;1.456;2023-09-19T07:47:01;9.67;;;2.10;;
15655;SDS011;7928;43.614;1.456;2023-09-19T07:49:29;5.43;;;2.40;;
15655;SDS011;7928;43.614;1.456;2023-09-19T07:51:57;5.77;;;1.83;;
15655;SDS011;7928;43.614;1.456;2023-09-19T07:54:25;5.53;;;2.10;;
15655;SDS011;7928;43.614;1.456;2023-09-19T07:56:55;12.43;;;3.30;;
15655;SDS011;7928;43.614;1.456;2023-09-19T07:59:23;5.73;;;1.83;;
15655;SDS011;7928;43.614;1.456;2023-09-19T08:01:50;6.30;;;1.97;;
15655;SDS011;7928;43.614;1.456;2023-09-19T08:04:17;8.63;;;2.03;;
15655;SDS011;7928;43.614;1.456;2023-09-19T08:06:44;10.13;;;2.43;;
15655;SDS011;7928;43.614;1.456;2023-09-19T08:09:13;15.07;;;3.83;;
15655;SDS011;7928;43.614;1.456;2023-09-19T08:11:45;14.10;;;4.63;;
15655;SDS011;7928;43.614;1.456;2023-09-19T08:14:12;10.73;;;2.57;;
15655;SDS011;7928;43.614;1.456;2023-09-19T08:16:40;8.07;;;2.70;;
15655;SDS011;7928;43.614;1.456;2023-09-19T08:19:08;8.17;;;2.40;;
15655;SDS011;7928;43.614;1.456;2023-09-19T08:21:36;7.50;;;2.50;;
15655;SDS011;7928;43.614;1.456;2023-09-19T08:24:04;8.60;;;2.63;;
15655;SDS011;7928;43.614;1.456;2023-09-19T08:26:32;6.83;;;2.30;;
15655;SDS011;7928;43.614;1.456;2023-09-19T08:29:00;6.50;;;1.93;;
15655;SDS011;7928;43.614;1.456;2023-09-19T08:31:31;11.93;;;2.50;;
15655;SDS011;7928;43.614;1.456;2023-09-19T08:33:58;7.27;;;1.80;;
15655;SDS011;7928;43.614;1.456;2023-09-19T08:36:25;7.23;;;2.20;;
15655;SDS011;7928;43.614;1.456;2023-09-19T08:38:52;4.33;;;1.47;;
15655;SDS011;7928;43.614;1.456;2023-09-19T08:41:19;9.20;;;2.67;;
15655;SDS011;7928;43.614;1.456;2023-09-19T08:43:48;6.03;;;1.70;;
15655;SDS011;7928;43.614;1.456;2023-09-19T08:46:16;9.63;;;2.37;;
15655;SDS011;7928;43.614;1.456;2023-09-19T08:48:45;7.17;;;2.13;;
15655;SDS011;7928;43.614;1.456;2023-09-19T08:51:18;7.20;;;1.83;;
15655;SDS011;7928;43.614;1.456;2023-09-19T08:53:54;5.53;;;1.73;;
15655;SDS011;7928;43.614;1.456;2023-09-19T08:56:29;8.30;;;2.17;;
15655;SDS011;7928;43.614;1.456;2023-09-19T08:59:00;6.97;;;2.00;;
15655;SDS011;7928;43.614;1.456;2023-09-19T09:01:31;6.50;;;2.17;;
15655;SDS011;7928;43.614;1.456;2023-09-19T09:03:58;9.63;;;1.83;;
15655;SDS011;7928;43.614;1.456;2023-09-19T09:06:25;6.53;;;1.43;;
15655;SDS011;7928;43.614;1.456;2023-09-19T09:08:53;6.73;;;2.00;;
15655;SDS011;7928;43.614;1.456;2023-09-19T09:11:21;7.30;;;1.60;;
15655;SDS011;7928;43.614;1.456;2023-09-19T09:13:49;6.63;;;1.80;;
15655;SDS011;7928;43.614;1.456;2023-09-19T09:16:18;3.17;;;1.20;;
15655;SDS011;7928;43.614;1.456;2023-09-19T09:18:45;5.63;;;1.47;;
15655;SDS011;7928;43.614;1.456;2023-09-19T09:21:17;4.70;;;1.80;;
15655;SDS011;7928;43.614;1.456;2023-09-19T09:23:46;8.50;;;2.23;;
15655;SDS011;7928;43.614;1.456;2023-09-19T09:26:13;5.70;;;1.60;;
15655;SDS011;7928;43.614;1.456;2023-09-19T09:28:44;8.47;;;1.93;;
15655;SDS011;7928;43.614;1.456;2023-09-19T09:31:23;8.60;;;1.80;;
15655;SDS011;7928;43.614;1.456;2023-09-19T09:33:54;8.87;;;2.03;;
15655;SDS011;7928;43.614;1.456;2023-09-19T09:36:33;6.90;;;1.63;;
15655;SDS011;7928;43.614;1.456;2023-09-19T09:39:01;6.17;;;1.23;;
15655;SDS011;7928;43.614;1.456;2023-09-19T09:41:41;8.23;;;1.37;;
15655;SDS011;7928;43.614;1.456;2023-09-19T09:44:11;5.17;;;1.67;;
15655;SDS011;7928;43.614;1.456;2023-09-19T09:46:43;3.63;;;1.50;;
15655;SDS011;7928;43.614;1.456;2023-09-19T09:49:40;6.90;;;1.50;;
15655;SDS011;7928;43.614;1.456;2023-09-19T09:52:19;7.40;;;1.33;;
15655;SDS011;7928;43.614;1.456;2023-09-19T09:54:58;4.63;;;1.10;;
15655;SDS011;7928;43.614;1.456;2023-09-19T09:57:30;7.27;;;1.50;;
15655;SDS011;7928;43.614;1.456;2023-09-19T09:59:58;6.93;;;1.60;;
15655;SDS011;7928;43.614;1.456;2023-09-19T10:02:42;3.77;;;1.37;;
15655;SDS011;7928;43.614;1.456;2023-09-19T10:05:12;4.93;;;1.40;;
15655;SDS011;7928;43.614;1.456;2023-09-19T10:07:46;4.27;;;1.53;;
15655;SDS011;7928;43.614;1.456;2023-09-19T10:10:15;4.80;;;1.70;;
15655;SDS011;7928;43.614;1.456;2023-09-19T10:12:55;10.27;;;6.00;;
15655;SDS011;7928;43.614;1.456;2023-09-19T10:15:28;4.87;;;1.47;;
15655;SDS011;7928;43.614;1.456;2023-09-19T10:18:00;5.47;;;1.75;;
15655;SDS011;7928;43.614;1.456;2023-09-19T10:20:33;4.60;;;1.85;;
15655;SDS011;7928;43.614;1.456;2023-09-19T10:23:05;5.88;;;1.90;;
15655;SDS011;7928;43.614;1.456;2023-09-19T10:25:36;7.38;;;1.40;;
15655;SDS011;7928;43.614;1.456;2023-09-19T10:28:05;5.25;;;1.23;;
15655;SDS011;7928;43.614;1.456;2023-09-19T10:30:36;4.72;;;1.50;;
15655;SDS011;7928;43.614;1.456;2023-09-19T10:33:08;5.75;;;1.40;;
15655;SDS011;7928;43.614;1.456;2023-09-19T10:35:36;5.15;;;1.17;;
15655;SDS011;7928;43.614;1.456;2023-09-19T10:38:06;3.15;;;1.10;;
15655;SDS011;7928;43.614;1.456;2023-09-19T10:40:34;4.45;;;1.20;;
15655;SDS011;7928;43.614;1.456;2023-09-19T10:43:05;5.63;;;1.48;;
15655;SDS011;7928;43.614;1.456;2023-09-19T10:45:33;5.05;;;1.50;;
15655;SDS011;7928;43.614;1.456;2023-09-19T10:48:04;3.08;;;1.10;;
15655;SDS011;7928;43.614;1.456;2023-09-19T10:50:35;5.07;;;2.92;;
15655;SDS011;7928;43.614;1.456;2023-09-19T10:53:14;11.38;;;6.57;;
15655;SDS011;7928;43.614;1.456;2023-09-19T10:55:47;6.45;;;3.55;;
15655;SDS011;7928;43.614;1.456;2023-09-19T10:58:25;5.47;;;3.80;;
15655;SDS011;7928;43.614;1.456;2023-09-19T11:00:54;5.13;;;1.52;;
15655;SDS011;7928;43.614;1.456;2023-09-19T11:03:26;5.05;;;2.90;;
15655;SDS011;7928;43.614;1.456;2023-09-19T11:06:07;3.83;;;1.40;;
15655;SDS011;7928;43.614;1.456;2023-09-19T11:08:52;3.78;;;2.33;;
15655;SDS011;7928;43.614;1.456;2023-09-19T11:14:30;3.53;;;1.92;;
15655;SDS011;7928;43.614;1.456;2023-09-19T11:17:29;4.07;;;1.52;;
15655;SDS011;7928;43.614;1.456;2023-09-19T11:20:17;2.88;;;1.20;;
15655;SDS011;7928;43.614;1.456;2023-09-19T11:23:20;4.28;;;1.65;;
15655;SDS011;7928;43.614;1.456;2023-09-19T11:25:53;8.77;;;1.88;;
15655;SDS011;7928;43.614;1.456;2023-09-19T11:28:33;3.08;;;1.30;;
15655;SDS011;7928;43.614;1.456;2023-09-19T11:40:45;2.67;;;1.10;;
15655;SDS011;7928;43.614;1.456;2023-09-19T11:43:32;4.68;;;1.10;;
15655;SDS011;7928;43.614;1.456;2023-09-19T11:46:05;4.18;;;1.30;;
15655;SDS011;7928;43.614;1.456;2023-09-19T11:48:32;3.85;;;1.60;;
15655;SDS011;7928;43.614;1.456;2023-09-19T11:51:09;3.22;;;0.90;;
15655;SDS011;7928;43.614;1.456;2023-09-19T11:53:48;2.63;;;1.40;;
15655;SDS011;7928;43.614;1.456;2023-09-19T11:56:17;2.95;;;1.38;;
15655;SDS011;7928;43.614;1.456;2023-09-19T11:58:45;4.75;;;1.70;;
15655;SDS011;7928;43.614;1.456;2023-09-19T12:01:14;3.05;;;1.20;;
15655;SDS011;7928;43.614;1.456;2023-09-19T12:03:47;3.88;;;1.52;;
15655;SDS011;7928;43.614;1.456;2023-09-19T12:06:22;3.38;;;1.20;;
15655;SDS011;7928;43.614;1.456;2023-09-19T12:08:49;3.45;;;2.03;;
15655;SDS011;7928;43.614;1.456;2023-09-19T12:11:21;7.53;;;1.60;;
15655;SDS011;7928;43.614;1.456;2023-09-19T12:13:49;3.25;;;1.58;;
15655;SDS011;7928;43.614;1.456;2023-09-19T12:16:18;4.93;;;3.35;;
15655;SDS011;7928;43.614;1.456;2023-09-19T12:18:48;3.55;;;1.70;;
15655;SDS011;7928;43.614;1.456;2023-09-19T12:21:25;2.47;;;1.48;;
15655;SDS011;7928;43.614;1.456;2023-09-19T12:24:04;4.15;;;1.70;;
15655;SDS011;7928;43.614;1.456;2023-09-19T12:26:41;3.90;;;1.42;;
15655;SDS011;7928;43.614;1.456;2023-09-19T12:29:14;5.00;;;1.33;;
15655;SDS011;7928;43.614;1.456;2023-09-19T12:31:47;4.65;;;1.63;;
15655;SDS011;7928;43.614;1.456;2023-09-19T12:34:19;5.18;;;1.13;;
15655;SDS011;7928;43.614;1.456;2023-09-19T12:36:47;3.80;;;1.25;;
15655;SDS011;7928;43.614;1.456;2023-09-19T12:39:24;2.42;;;1.20;;
15655;SDS011;7928;43.614;1.456;2023-09-19T12:41:53;3.30;;;1.52;;
15655;SDS011;7928;43.614;1.456;2023-09-19T12:44:20;4.63;;;1.60;;
15655;SDS011;7928;43.614;1.456;2023-09-19T12:46:50;2.55;;;1.27;;
15655;SDS011;7928;43.614;1.456;2023-09-19T12:49:19;2.42;;;1.30;;
15655;SDS011;7928;43.614;1.456;2023-09-19T12:51:48;2.83;;;1.50;;
15655;SDS011;7928;43.614;1.456;2023-09-19T12:54:15;1.83;;;1.20;;
15655;SDS011;7928;43.614;1.456;2023-09-19T12:56:43;3.28;;;1.08;;
15655;SDS011;7928;43.614;1.456;2023-09-19T12:59:14;1.88;;;1.05;;
15655;SDS011;7928;43.614;1.456;2023-09-19T13:01:42;1.95;;;1.08;;
15655;SDS011;7928;43.614;1.456;2023-09-19T13:04:14;1.80;;;1.15;;
15655;SDS011;7928;43.614;1.456;2023-09-19T13:06:45;2.58;;;1.58;;
15655;SDS011;7928;43.614;1.456;2023-09-19T13:09:14;3.10;;;0.95;;
15655;SDS011;7928;43.614;1.456;2023-09-19T13:11:42;2.78;;;0.90;;
15655;SDS011;7928;43.614;1.456;2023-09-19T13:14:16;3.25;;;1.30;;
15655;SDS011;7928;43.614;1.456;2023-09-19T13:16:54;4.05;;;1.10;;
15655;SDS011;7928;43.614;1.456;2023-09-19T13:19:38;2.42;;;0.82;;
15655;SDS011;7928;43.614;1.456;2023-09-19T13:25:07;3.63;;;1.08;;
15655;SDS011;7928;43.614;1.456;2023-09-19T13:27:39;3.00;;;1.25;;
15655;SDS011;7928;43.614;1.456;2023-09-19T13:30:09;2.42;;;0.90;;
15655;SDS011;7928;43.614;1.456;2023-09-19T13:32:37;2.13;;;1.25;;
15655;SDS011;7928;43.614;1.456;2023-09-19T13:35:06;4.03;;;1.13;;
15655;SDS011;7928;43.614;1.456;2023-09-19T13:37:34;2.17;;;0.90;;
15655;SDS011;7928;43.614;1.456;2023-09-19T13:40:02;3.45;;;1.00;;
15655;SDS011;7928;43.614;1.456;2023-09-19T13:42:30;1.60;;;1.00;;
15655;SDS011;7928;43.614;1.456;2023-09-19T13:44:57;1.45;;;0.90;;
15655;SDS011;7928;43.614;1.456;2023-09-19T13:47:26;3.88;;;1.20;;
15655;SDS011;7928;43.614;1.456;2023-09-19T13:49:53;1.27;;;0.80;;
15655;SDS011;7928;43.614;1.456;2023-09-19T13:52:20;1.95;;;1.15;;
15655;SDS011;7928;43.614;1.456;2023-09-19T13:54:48;2.33;;;0.93;;
15655;SDS011;7928;43.614;1.456;2023-09-19T13:57:16;5.00;;;1.20;;
15655;SDS011;7928;43.614;1.456;2023-09-19T13:59:43;2.33;;;1.17;;
15655;SDS011;7928;43.614;1.456;2023-09-19T14:02:10;3.25;;;1.30;;
15655;SDS011;7928;43.614;1.456;2023-09-19T14:04:40;1.27;;;0.90;;
15655;SDS011;7928;43.614;1.456;2023-09-19T14:07:07;3.97;;;3.58;;
15655;SDS011;7928;43.614;1.456;2023-09-19T14:09:36;2.53;;;1.30;;
15655;SDS011;7928;43.614;1.456;2023-09-19T14:12:03;2.30;;;1.00;;
15655;SDS011;7928;43.614;1.456;2023-09-19T14:14:30;2.15;;;1.15;;
15655;SDS011;7928;43.614;1.456;2023-09-19T14:16:57;1.73;;;1.10;;
15655;SDS011;7928;43.614;1.456;2023-09-19T14:19:26;2.47;;;1.30;;
15655;SDS011;7928;43.614;1.456;2023-09-19T14:21:54;1.27;;;0.98;;
15655;SDS011;7928;43.614;1.456;2023-09-19T14:24:21;1.63;;;1.10;;
15655;SDS011;7928;43.614;1.456;2023-09-19T14:26:49;2.30;;;1.40;;
15655;SDS011;7928;43.614;1.456;2023-09-19T14:29:16;2.83;;;1.00;;
15655;SDS011;7928;43.614;1.456;2023-09-19T14:31:44;2.67;;;0.93;;
15655;SDS011;7928;43.614;1.456;2023-09-19T14:34:11;2.55;;;1.30;;
15655;SDS011;7928;43.614;1.456;2023-09-19T14:36:40;1.85;;;0.90;;
15655;SDS011;7928;43.614;1.456;2023-09-19T14:39:08;2.70;;;1.20;;
15655;SDS011;7928;43.614;1.456;2023-09-19T14:41:35;2.45;;;1.15;;
15655;SDS011;7928;43.614;1.456;2023-09-19T14:44:02;2.83;;;0.85;;
15655;SDS011;7928;43.614;1.456;2023-09-19T14:46:30;3.15;;;1.40;;
15655;SDS011;7928;43.614;1.456;2023-09-19T14:48:57;3.28;;;1.42;;
15655;SDS011;7928;43.614;1.456;2023-09-19T14:51:25;2.28;;;1.10;;
15655;SDS011;7928;43.614;1.456;2023-09-19T14:53:52;2.65;;;0.93;;
15655;SDS011;7928;43.614;1.456;2023-09-19T14:56:21;2.42;;;1.35;;
15655;SDS011;7928;43.614;1.456;2023-09-19T14:58:49;1.98;;;1.13;;
15655;SDS011;7928;43.614;1.456;2023-09-19T15:01:16;5.25;;;2.45;;
15655;SDS011;7928;43.614;1.456;2023-09-19T15:03:43;3.28;;;1.73;;
15655;SDS011;7928;43.614;1.456;2023-09-19T15:06:11;4.00;;;1.50;;
15655;SDS011;7928;43.614;1.456;2023-09-19T15:08:39;4.15;;;1.75;;
15655;SDS011;7928;43.614;1.456;2023-09-19T15:11:10;5.18;;;1.63;;
15655;SDS011;7928;43.614;1.456;2023-09-19T15:13:39;2.78;;;1.50;;
15655;SDS011;7928;43.614;1.456;2023-09-19T15:16:07;2.70;;;1.30;;
15655;SDS011;7928;43.614;1.456;2023-09-19T15:18:35;3.78;;;1.35;;
15655;SDS011;7928;43.614;1.456;2023-09-19T15:21:04;2.88;;;1.40;;
15655;SDS011;7928;43.614;1.456;2023-09-19T15:23:31;2.92;;;1.33;;
15655;SDS011;7928;43.614;1.456;2023-09-19T15:25:59;3.35;;;1.42;;
15655;SDS011;7928;43.614;1.456;2023-09-19T15:28:27;2.20;;;1.40;;
15655;SDS011;7928;43.614;1.456;2023-09-19T15:31:00;2.22;;;1.33;;
15655;SDS011;7928;43.614;1.456;2023-09-19T15:33:29;9.70;;;1.40;;